Time;durP1;ratioP1;P1;durP2;ratioP2;P2;SDS_P1;SDS_P2;PMS_P1;PMS_P2;Temp;Humidity;BMP_temperature;BMP_pressure;BME280_temperature;BME280_humidity;BME280_pressure;Samples;Min_cycle;Max_cycle;Signal;HPM_P1;HPM_P2
2022/12/19 00:02:16;;;;;;;39.40;21.85;;;;;;;;;;4958860;28;20230;-63
2022/12/19 00:04:44;;;;;;;39.88;21.25;;;;;;;;;;4958594;28;20258;-63
2022/12/19 00:07:12;;;;;;;39.70;21.10;;;;;;;;;;4958521;28;20234;-63
2022/12/19 00:09:39;;;;;;;33.72;20.38;;;;;;;;;;4958866;28;20291;-63
2022/12/19 00:12:07;;;;;;;36.72;20.92;;;;;;;;;;4957864;28;20295;-63
2022/12/19 00:14:34;;;;;;;34.50;19.27;;;;;;;;;;4958264;28;20205;-63
2022/12/19 00:17:01;;;;;;;33.75;19.70;;;;;;;;;;4958103;28;20694;-63
2022/12/19 00:19:28;;;;;;;35.08;21.20;;;;;;;;;;4958589;28;20225;-63
2022/12/19 00:21:56;;;;;;;43.90;23.88;;;;;;;;;;4958223;28;20203;-63
2022/12/19 00:24:24;;;;;;;41.90;21.55;;;;;;;;;;4958134;28;20219;-63
2022/12/19 00:26:51;;;;;;;38.38;22.15;;;;;;;;;;4958184;28;20224;-63
2022/12/19 00:29:19;;;;;;;38.08;20.10;;;;;;;;;;4957661;28;20200;-63
2022/12/19 00:31:46;;;;;;;40.13;20.27;;;;;;;;;;4957809;28;20200;-63
2022/12/19 00:34:13;;;;;;;47.20;20.90;;;;;;;;;;4957374;28;20231;-63
2022/12/19 00:36:41;;;;;;;38.70;21.92;;;;;;;;;;4957837;28;20223;-63
2022/12/19 00:39:09;;;;;;;39.75;22.52;;;;;;;;;;4957893;28;20204;-63
2022/12/19 00:41:38;;;;;;;39.10;21.70;;;;;;;;;;4958138;28;20214;-63
2022/12/19 00:44:06;;;;;;;37.67;21.55;;;;;;;;;;4957714;28;20200;-64
2022/12/19 00:46:34;;;;;;;43.25;21.27;;;;;;;;;;4957824;28;20202;-64
2022/12/19 00:49:01;;;;;;;43.13;22.63;;;;;;;;;;4957445;28;20288;-64
2022/12/19 00:51:29;;;;;;;40.50;21.20;;;;;;;;;;4957762;28;20210;-64
2022/12/19 00:53:57;;;;;;;40.35;21.55;;;;;;;;;;4957758;28;20203;-65
2022/12/19 00:56:25;;;;;;;35.03;20.02;;;;;;;;;;4957886;28;20314;-64
2022/12/19 00:58:54;;;;;;;40.50;19.80;;;;;;;;;;4957442;28;20274;-64
2022/12/19 01:01:23;;;;;;;39.20;20.55;;;;;;;;;;4957514;28;20209;-63
2022/12/19 01:03:50;;;;;;;38.30;21.63;;;;;;;;;;4957363;28;20234;-64
2022/12/19 01:06:18;;;;;;;47.20;22.30;;;;;;;;;;4957480;28;20296;-63
2022/12/19 01:08:45;;;;;;;46.53;22.80;;;;;;;;;;4957561;28;20205;-63
2022/12/19 01:11:13;;;;;;;38.50;25.10;;;;;;;;;;4957253;28;20562;-64
2022/12/19 01:13:39;;;;;;;41.05;21.20;;;;;;;;;;4957251;28;20566;-64
2022/12/19 01:16:09;;;;;;;36.22;20.20;;;;;;;;;;4957192;28;20317;-64
2022/12/19 01:18:36;;;;;;;45.83;22.25;;;;;;;;;;4957144;28;20287;-64
2022/12/19 01:21:04;;;;;;;41.22;20.65;;;;;;;;;;4956873;28;20210;-64
2022/12/19 01:23:32;;;;;;;41.53;21.55;;;;;;;;;;4956707;28;20211;-64
2022/12/19 01:25:59;;;;;;;45.22;22.58;;;;;;;;;;4957168;28;20663;-64
2022/12/19 01:28:26;;;;;;;46.50;20.90;;;;;;;;;;4957279;28;20225;-64
2022/12/19 01:30:54;;;;;;;44.00;21.40;;;;;;;;;;4956934;28;20400;-64
2022/12/19 01:33:22;;;;;;;39.80;20.48;;;;;;;;;;4956994;28;20207;-64
2022/12/19 01:35:50;;;;;;;40.35;20.70;;;;;;;;;;4956497;28;20204;-64
2022/12/19 01:38:17;;;;;;;40.20;21.20;;;;;;;;;;4956765;28;20200;-64
2022/12/19 01:40:50;;;;;;;41.83;22.75;;;;;;;;;;4956532;28;20206;-63
2022/12/19 01:43:17;;;;;;;40.00;20.65;;;;;;;;;;4957061;28;20213;-63
2022/12/19 01:45:44;;;;;;;44.15;21.10;;;;;;;;;;4956450;28;20290;-63
2022/12/19 01:48:17;;;;;;;48.22;24.33;;;;;;;;;;4955820;28;20205;-63
2022/12/19 01:50:49;;;;;;;43.83;21.23;;;;;;;;;;4956609;28;20200;-63
2022/12/19 01:53:17;;;;;;;39.85;22.20;;;;;;;;;;4956626;28;20191;-63
2022/12/19 01:55:45;;;;;;;50.05;23.73;;;;;;;;;;4956239;28;20199;-62
2022/12/19 01:58:13;;;;;;;44.10;23.88;;;;;;;;;;4955967;28;20227;-63
2022/12/19 02:00:41;;;;;;;51.83;24.63;;;;;;;;;;4956105;28;20199;-63
2022/12/19 02:03:11;;;;;;;48.78;23.70;;;;;;;;;;4956257;28;20227;-62
2022/12/19 02:05:38;;;;;;;37.15;20.50;;;;;;;;;;4956213;28;20206;-62
2022/12/19 02:08:07;;;;;;;41.90;21.60;;;;;;;;;;4955963;28;20208;-62
2022/12/19 02:10:34;;;;;;;43.78;20.50;;;;;;;;;;4955813;28;20692;-63
2022/12/19 02:13:01;;;;;;;37.40;20.60;;;;;;;;;;4956103;28;20207;-63
2022/12/19 02:15:33;;;;;;;40.35;21.08;;;;;;;;;;4956128;28;20197;-62
2022/12/19 02:18:07;;;;;;;47.90;22.95;;;;;;;;;;4956396;28;20250;-62
2022/12/19 02:20:55;;;;;;;42.38;23.13;;;;;;;;;;4956229;28;20289;-64
2022/12/19 02:23:46;;;;;;;43.90;22.35;;;;;;;;;;4931689;28;20212;-63
2022/12/19 02:26:28;;;;;;;37.40;21.35;;;;;;;;;;4956261;28;20628;-62
2022/12/19 02:29:03;;;;;;;39.95;20.92;;;;;;;;;;4955620;28;20664;-62
2022/12/19 02:31:32;;;;;;;38.25;22.67;;;;;;;;;;4956059;28;20188;-63
2022/12/19 02:34:03;;;;;;;42.05;21.02;;;;;;;;;;4955828;28;20204;-63
2022/12/19 02:36:37;;;;;;;41.33;21.80;;;;;;;;;;4956067;28;20298;-63
2022/12/19 02:39:07;;;;;;;43.00;21.38;;;;;;;;;;4955845;28;20181;-63
2022/12/19 02:41:42;;;;;;;39.95;21.20;;;;;;;;;;4955885;28;20619;-62
2022/12/19 02:44:09;;;;;;;40.30;21.15;;;;;;;;;;4955948;28;20187;-62
2022/12/19 02:46:38;;;;;;;39.13;22.40;;;;;;;;;;4955993;28;20297;-63
2022/12/19 02:49:05;;;;;;;41.35;21.35;;;;;;;;;;4955727;28;20216;-62
2022/12/19 02:51:32;;;;;;;44.92;21.70;;;;;;;;;;4955666;28;20212;-62
2022/12/19 02:54:00;;;;;;;41.67;23.00;;;;;;;;;;4955711;28;20200;-62
2022/12/19 02:56:35;;;;;;;39.92;21.85;;;;;;;;;;4955526;28;20240;-62
2022/12/19 02:59:17;;;;;;;50.58;22.55;;;;;;;;;;4955031;28;20641;-63
2022/12/19 03:01:48;;;;;;;43.25;22.35;;;;;;;;;;4943542;28;20200;-62
2022/12/19 03:04:18;;;;;;;39.95;24.00;;;;;;;;;;4955823;28;20237;-62
2022/12/19 03:06:48;;;;;;;43.50;22.33;;;;;;;;;;4955460;28;20212;-62
2022/12/19 03:09:17;;;;;;;36.45;21.25;;;;;;;;;;4955768;28;20276;-63
2022/12/19 03:11:46;;;;;;;32.97;18.88;;;;;;;;;;4954921;28;20202;-62
2022/12/19 03:14:17;;;;;;;38.72;21.20;;;;;;;;;;4955109;28;20311;-63
2022/12/19 03:16:44;;;;;;;35.03;20.15;;;;;;;;;;4954952;28;20701;-62
2022/12/19 03:19:14;;;;;;;43.05;22.40;;;;;;;;;;4955234;28;20201;-62
2022/12/19 03:21:42;;;;;;;44.72;21.08;;;;;;;;;;4955388;28;20737;-62
2022/12/19 03:24:11;;;;;;;38.60;20.50;;;;;;;;;;4954910;28;20650;-62
2022/12/19 03:26:42;;;;;;;39.58;21.27;;;;;;;;;;4955073;28;20200;-63
2022/12/19 03:29:11;;;;;;;35.30;20.23;;;;;;;;;;4955633;28;20197;-63
2022/12/19 03:31:40;;;;;;;38.45;22.50;;;;;;;;;;4954838;28;20240;-62
2022/12/19 03:34:11;;;;;;;41.17;21.75;;;;;;;;;;4954953;28;20226;-62
2022/12/19 03:36:40;;;;;;;37.30;22.27;;;;;;;;;;4954744;28;20203;-62
2022/12/19 03:39:09;;;;;;;46.92;24.00;;;;;;;;;;4955068;28;20200;-63
2022/12/19 03:44:24;;;;;;;42.83;23.20;;;;;;;;;;4955193;29;20606;-63
2022/12/19 03:46:55;;;;;;;40.35;22.38;;;;;;;;;;4955013;28;20574;-62
2022/12/19 03:49:22;;;;;;;41.03;20.38;;;;;;;;;;4955298;28;20193;-62
2022/12/19 03:51:54;;;;;;;41.45;22.65;;;;;;;;;;4954985;28;20292;-63
2022/12/19 03:54:24;;;;;;;44.83;21.48;;;;;;;;;;4954740;28;20270;-63
2022/12/19 03:56:53;;;;;;;44.28;21.52;;;;;;;;;;4954890;28;20227;-63
2022/12/19 03:59:23;;;;;;;45.45;21.45;;;;;;;;;;4954630;28;20218;-63
2022/12/19 04:01:50;;;;;;;33.42;19.05;;;;;;;;;;4954572;28;20204;-63
2022/12/19 04:04:18;;;;;;;39.85;20.67;;;;;;;;;;4954787;28;20324;-63
2022/12/19 04:06:46;;;;;;;40.05;20.65;;;;;;;;;;4954774;28;20647;-63
2022/12/19 04:09:15;;;;;;;37.90;22.20;;;;;;;;;;4955056;28;20736;-64
2022/12/19 04:11:44;;;;;;;40.53;20.90;;;;;;;;;;4958150;28;20286;-64
2022/12/19 04:14:13;;;;;;;45.05;20.58;;;;;;;;;;4958271;28;20208;-64
2022/12/19 04:16:44;;;;;;;44.15;22.80;;;;;;;;;;4958216;28;20200;-63
2022/12/19 04:19:14;;;;;;;40.00;21.90;;;;;;;;;;4958578;28;20194;-63
2022/12/19 04:21:44;;;;;;;44.67;21.52;;;;;;;;;;4958142;28;20745;-63
2022/12/19 04:24:15;;;;;;;43.17;22.02;;;;;;;;;;4958779;28;20193;-63
2022/12/19 04:26:44;;;;;;;39.92;22.10;;;;;;;;;;4957907;28;20238;-63
2022/12/19 04:29:12;;;;;;;39.45;20.90;;;;;;;;;;4958186;28;20200;-63
2022/12/19 04:31:40;;;;;;;33.85;19.20;;;;;;;;;;4957769;28;20237;-63
2022/12/19 04:34:07;;;;;;;36.90;21.88;;;;;;;;;;4958266;28;20212;-63
2022/12/19 04:36:34;;;;;;;36.42;22.48;;;;;;;;;;4957858;28;20659;-63
2022/12/19 04:39:01;;;;;;;33.35;20.92;;;;;;;;;;4958017;28;20272;-64
2022/12/19 04:41:28;;;;;;;39.83;22.60;;;;;;;;;;4957564;28;20202;-64
2022/12/19 04:43:57;;;;;;;38.28;20.50;;;;;;;;;;4957995;28;20228;-64
2022/12/19 04:46:24;;;;;;;41.38;20.17;;;;;;;;;;4957483;28;20208;-64
2022/12/19 04:48:51;;;;;;;38.58;21.88;;;;;;;;;;4957702;28;20209;-64
2022/12/19 04:51:18;;;;;;;40.40;20.60;;;;;;;;;;4956904;28;20280;-64
2022/12/19 04:53:46;;;;;;;42.30;22.13;;;;;;;;;;4957512;28;20204;-64
2022/12/19 04:56:13;;;;;;;43.70;22.05;;;;;;;;;;4957126;28;20209;-64
2022/12/19 04:58:40;;;;;;;40.88;21.63;;;;;;;;;;4957006;28;20225;-63
2022/12/19 05:01:09;;;;;;;43.03;22.45;;;;;;;;;;4957442;28;20209;-64
2022/12/19 05:03:36;;;;;;;40.25;21.15;;;;;;;;;;4957396;28;20268;-64
2022/12/19 05:06:04;;;;;;;33.47;20.20;;;;;;;;;;4956900;28;20204;-64
2022/12/19 05:08:32;;;;;;;37.30;21.30;;;;;;;;;;4957505;28;20633;-64
2022/12/19 05:11:00;;;;;;;45.00;22.92;;;;;;;;;;4957225;28;20202;-64
2022/12/19 05:13:28;;;;;;;38.40;21.77;;;;;;;;;;4957443;28;20199;-64
2022/12/19 05:15:58;;;;;;;36.00;23.10;;;;;;;;;;4957335;28;20208;-64
2022/12/19 05:18:27;;;;;;;35.10;19.90;;;;;;;;;;4956856;28;20217;-64
2022/12/19 05:20:55;;;;;;;41.45;21.55;;;;;;;;;;4956191;28;20205;-64
2022/12/19 05:23:22;;;;;;;41.17;22.05;;;;;;;;;;4956822;28;20269;-64
2022/12/19 05:25:50;;;;;;;38.25;21.15;;;;;;;;;;4956832;28;20287;-64
2022/12/19 05:28:17;;;;;;;43.97;20.50;;;;;;;;;;4957041;28;20681;-64
2022/12/19 05:30:45;;;;;;;39.50;22.15;;;;;;;;;;4957163;28;20231;-64
2022/12/19 05:33:12;;;;;;;32.80;21.15;;;;;;;;;;4956812;28;20615;-64
2022/12/19 05:35:41;;;;;;;39.17;21.40;;;;;;;;;;4957025;28;20286;-64
2022/12/19 05:38:08;;;;;;;35.38;21.92;;;;;;;;;;4956874;28;20224;-64
2022/12/19 05:40:36;;;;;;;38.30;19.83;;;;;;;;;;4956556;28;20207;-64
2022/12/19 05:43:03;;;;;;;44.30;20.42;;;;;;;;;;4956766;28;20197;-64
2022/12/19 05:45:30;;;;;;;40.75;22.15;;;;;;;;;;4956713;28;20200;-64
2022/12/19 05:47:57;;;;;;;36.22;22.35;;;;;;;;;;4956636;28;20216;-64
2022/12/19 05:50:24;;;;;;;47.80;21.58;;;;;;;;;;4956019;28;20656;-64
2022/12/19 05:52:53;;;;;;;48.60;23.15;;;;;;;;;;4956529;28;20198;-65
2022/12/19 05:55:20;;;;;;;43.83;23.17;;;;;;;;;;4955942;28;20205;-64
2022/12/19 05:57:47;;;;;;;44.80;22.27;;;;;;;;;;4955919;28;20219;-64
2022/12/19 06:00:16;;;;;;;36.70;21.08;;;;;;;;;;4956453;28;20205;-64
2022/12/19 06:02:43;;;;;;;42.90;22.73;;;;;;;;;;4955917;28;20238;-63
2022/12/19 06:05:10;;;;;;;46.47;23.48;;;;;;;;;;4956030;28;20199;-64
2022/12/19 06:07:37;;;;;;;41.22;22.90;;;;;;;;;;4955991;28;20202;-64
2022/12/19 06:10:07;;;;;;;41.70;22.73;;;;;;;;;;4956624;28;20232;-64
2022/12/19 06:12:34;;;;;;;39.83;22.05;;;;;;;;;;4956117;28;20200;-63
2022/12/19 06:15:01;;;;;;;45.17;23.40;;;;;;;;;;4956175;28;20278;-64
2022/12/19 06:17:28;;;;;;;44.90;24.75;;;;;;;;;;4955653;28;20241;-64
2022/12/19 06:19:56;;;;;;;42.03;23.98;;;;;;;;;;4956147;28;20203;-64
2022/12/19 06:22:23;;;;;;;43.70;22.67;;;;;;;;;;4955596;28;20670;-65
2022/12/19 06:24:50;;;;;;;43.47;23.63;;;;;;;;;;4955656;28;20205;-64
2022/12/19 06:27:19;;;;;;;49.95;24.35;;;;;;;;;;4955868;28;20288;-64
2022/12/19 06:29:46;;;;;;;45.15;25.42;;;;;;;;;;4955910;28;20225;-64
2022/12/19 06:32:13;;;;;;;40.50;23.67;;;;;;;;;;4955333;28;20204;-64
2022/12/19 06:34:40;;;;;;;46.95;25.33;;;;;;;;;;4956110;28;20208;-64
2022/12/19 06:37:08;;;;;;;48.30;25.60;;;;;;;;;;4955335;28;20291;-64
2022/12/19 06:39:35;;;;;;;53.80;28.17;;;;;;;;;;4955603;28;20732;-64
2022/12/19 06:44:48;;;;;;;52.03;26.85;;;;;;;;;;4955571;29;20183;-64
2022/12/19 06:47:15;;;;;;;58.70;31.88;;;;;;;;;;4955620;28;20236;-64
2022/12/19 06:49:43;;;;;;;46.78;26.23;;;;;;;;;;4955247;28;20671;-64
2022/12/19 06:52:10;;;;;;;52.95;27.10;;;;;;;;;;4955745;28;20304;-64
2022/12/19 06:54:37;;;;;;;60.60;30.98;;;;;;;;;;4955687;28;20197;-64
2022/12/19 06:57:04;;;;;;;69.68;28.42;;;;;;;;;;4955244;28;20216;-64
2022/12/19 06:59:31;;;;;;;44.83;24.75;;;;;;;;;;4955364;28;20255;-64
2022/12/19 07:02:02;;;;;;;53.22;28.67;;;;;;;;;;4955314;28;20202;-64
2022/12/19 07:04:30;;;;;;;52.22;28.90;;;;;;;;;;4955656;28;20239;-63
2022/12/19 07:06:58;;;;;;;57.13;28.75;;;;;;;;;;4955441;28;20605;-64
2022/12/19 07:09:26;;;;;;;62.42;27.75;;;;;;;;;;4954973;28;20206;-64
2022/12/19 07:11:54;;;;;;;55.70;27.70;;;;;;;;;;4955103;28;20658;-64
2022/12/19 07:14:21;;;;;;;48.90;27.73;;;;;;;;;;4955194;28;20754;-64
2022/12/19 07:16:50;;;;;;;58.65;29.88;;;;;;;;;;4955208;28;20289;-64
2022/12/19 07:19:18;;;;;;;53.92;28.20;;;;;;;;;;4954882;28;20682;-63
2022/12/19 07:21:46;;;;;;;50.75;26.65;;;;;;;;;;4955381;28;20616;-64
2022/12/19 07:24:14;;;;;;;52.28;26.80;;;;;;;;;;4955503;28;20207;-64
2022/12/19 07:26:42;;;;;;;50.08;26.63;;;;;;;;;;4955418;28;20223;-65
2022/12/19 07:29:09;;;;;;;59.25;27.48;;;;;;;;;;4955051;28;20291;-64
2022/12/19 07:31:37;;;;;;;52.28;26.10;;;;;;;;;;4955068;28;20202;-64
2022/12/19 07:34:04;;;;;;;61.38;27.60;;;;;;;;;;4954825;28;20304;-64
2022/12/19 07:36:33;;;;;;;64.82;29.85;;;;;;;;;;4955356;28;20194;-64
2022/12/19 07:39:00;;;;;;;54.60;27.40;;;;;;;;;;4954987;28;20320;-64
2022/12/19 07:41:27;;;;;;;56.08;26.38;;;;;;;;;;4955091;28;20300;-65
2022/12/19 07:43:54;;;;;;;51.05;25.05;;;;;;;;;;4954888;28;20232;-64
2022/12/19 07:46:22;;;;;;;50.58;26.40;;;;;;;;;;4958472;28;20291;-64
2022/12/19 07:48:49;;;;;;;43.38;25.58;;;;;;;;;;4959006;28;20296;-64
2022/12/19 07:51:16;;;;;;;43.72;26.48;;;;;;;;;;4958749;28;20199;-64
2022/12/19 07:53:45;;;;;;;53.65;25.55;;;;;;;;;;4958731;28;20581;-64
2022/12/19 07:56:12;;;;;;;42.88;24.83;;;;;;;;;;4958777;28;20207;-64
2022/12/19 07:58:39;;;;;;;39.45;24.17;;;;;;;;;;4958304;28;20217;-64
2022/12/19 08:01:06;;;;;;;41.97;24.65;;;;;;;;;;4958845;28;20223;-64
2022/12/19 08:03:34;;;;;;;43.47;24.60;;;;;;;;;;4958343;28;20706;-64
2022/12/19 08:06:02;;;;;;;48.35;24.73;;;;;;;;;;4958611;28;20200;-64
2022/12/19 08:08:30;;;;;;;49.00;23.70;;;;;;;;;;4958449;28;20209;-64
2022/12/19 08:11:06;;;;;;;40.78;22.98;;;;;;;;;;4958169;28;20344;-64
2022/12/19 08:13:33;;;;;;;44.45;21.98;;;;;;;;;;4958101;28;20654;-64
2022/12/19 08:16:00;;;;;;;35.65;23.27;;;;;;;;;;4958333;28;20204;-65
2022/12/19 08:18:27;;;;;;;42.10;22.17;;;;;;;;;;4958202;28;20222;-64
2022/12/19 08:20:55;;;;;;;43.75;21.77;;;;;;;;;;4958307;28;20205;-65
2022/12/19 08:23:23;;;;;;;38.47;21.42;;;;;;;;;;4957959;28;20286;-64
2022/12/19 08:25:59;;;;;;;37.58;20.45;;;;;;;;;;4958262;28;20213;-64
2022/12/19 08:28:27;;;;;;;38.95;21.83;;;;;;;;;;4958177;28;20203;-64
2022/12/19 08:30:54;;;;;;;33.65;20.95;;;;;;;;;;4958001;28;20201;-64
2022/12/19 08:33:22;;;;;;;42.03;21.13;;;;;;;;;;4958175;28;20212;-65
2022/12/19 08:35:49;;;;;;;34.03;19.85;;;;;;;;;;4957878;28;20208;-65
2022/12/19 08:38:16;;;;;;;41.30;21.90;;;;;;;;;;4957986;28;20565;-65
2022/12/19 08:40:44;;;;;;;29.02;20.13;;;;;;;;;;4957437;28;20295;-64
2022/12/19 08:43:11;;;;;;;37.50;21.95;;;;;;;;;;4958396;28;20205;-64
2022/12/19 08:45:40;;;;;;;41.33;20.65;;;;;;;;;;4957700;28;20220;-64
2022/12/19 08:48:07;;;;;;;39.00;21.85;;;;;;;;;;4957723;28;20340;-64
2022/12/19 08:50:35;;;;;;;37.25;20.02;;;;;;;;;;4957573;28;20534;-65
2022/12/19 08:53:02;;;;;;;33.83;21.30;;;;;;;;;;4957227;28;20264;-65
2022/12/19 08:55:29;;;;;;;39.35;20.90;;;;;;;;;;4957190;28;20286;-65
2022/12/19 08:57:56;;;;;;;39.08;21.55;;;;;;;;;;4957257;28;20200;-64
2022/12/19 09:00:23;;;;;;;36.63;21.40;;;;;;;;;;4957090;28;20813;-64
2022/12/19 09:02:52;;;;;;;37.25;21.13;;;;;;;;;;4957414;28;20228;-64
2022/12/19 09:05:19;;;;;;;41.03;21.92;;;;;;;;;;4957415;28;20662;-64
2022/12/19 09:07:46;;;;;;;38.85;20.95;;;;;;;;;;4957439;28;20198;-64
2022/12/19 09:10:14;;;;;;;39.20;22.52;;;;;;;;;;4957194;28;20216;-64
2022/12/19 09:12:41;;;;;;;38.30;20.00;;;;;;;;;;4957328;28;20277;-64
2022/12/19 09:15:08;;;;;;;35.28;19.83;;;;;;;;;;4956882;28;20194;-65
2022/12/19 09:17:35;;;;;;;37.28;21.52;;;;;;;;;;4956858;28;20201;-64
2022/12/19 09:20:04;;;;;;;35.38;20.63;;;;;;;;;;4957028;28;20233;-64
2022/12/19 09:22:36;;;;;;;44.75;23.10;;;;;;;;;;4956872;28;20205;-64
2022/12/19 09:25:04;;;;;;;31.45;19.88;;;;;;;;;;4956741;28;20198;-64
2022/12/19 09:27:31;;;;;;;33.13;20.58;;;;;;;;;;4956963;28;20208;-65
2022/12/19 09:29:58;;;;;;;33.80;19.70;;;;;;;;;;4956719;28;20655;-64
2022/12/19 09:32:25;;;;;;;32.78;20.35;;;;;;;;;;4956695;28;20198;-64
2022/12/19 09:34:52;;;;;;;34.75;19.17;;;;;;;;;;4956884;28;20200;-64
2022/12/19 09:37:21;;;;;;;35.60;21.10;;;;;;;;;;4956561;28;20209;-64
2022/12/19 09:39:49;;;;;;;34.75;20.08;;;;;;;;;;4956293;28;20312;-64
2022/12/19 09:42:22;;;;;;;36.58;20.92;;;;;;;;;;4956461;28;20203;-64
2022/12/19 09:44:55;;;;;;;35.38;20.85;;;;;;;;;;4956563;28;20291;-64
2022/12/19 09:47:25;;;;;;;33.55;22.30;;;;;;;;;;4956260;28;20286;-64
2022/12/19 09:49:53;;;;;;;29.98;19.20;;;;;;;;;;4956500;28;20201;-64
2022/12/19 09:52:25;;;;;;;38.35;20.90;;;;;;;;;;4956569;28;20544;-64
2022/12/19 09:54:53;;;;;;;30.05;20.65;;;;;;;;;;4956353;28;20223;-64
2022/12/19 09:57:23;;;;;;;31.35;20.48;;;;;;;;;;4956987;28;20214;-64
2022/12/19 09:59:54;;;;;;;31.98;20.00;;;;;;;;;;4956761;28;20691;-64
2022/12/19 10:02:27;;;;;;;35.25;21.35;;;;;;;;;;4956144;28;20194;-63
2022/12/19 10:04:58;;;;;;;32.33;20.00;;;;;;;;;;4955903;28;20202;-65
2022/12/19 10:07:26;;;;;;;33.05;21.02;;;;;;;;;;4955843;28;20288;-65
2022/12/19 10:09:54;;;;;;;30.42;20.25;;;;;;;;;;4956070;28;20212;-65
2022/12/19 10:12:33;;;;;;;32.95;20.13;;;;;;;;;;4955830;28;20674;-64
2022/12/19 10:15:03;;;;;;;30.25;19.10;;;;;;;;;;4956319;28;20269;-64
2022/12/19 10:17:37;;;;;;;29.38;20.45;;;;;;;;;;4955794;28;20674;-64
2022/12/19 10:20:13;;;;;;;30.42;18.20;;;;;;;;;;4956231;28;20257;-64
2022/12/19 10:22:45;;;;;;;38.78;21.30;;;;;;;;;;4956322;28;20187;-64
2022/12/19 10:25:19;;;;;;;33.28;19.65;;;;;;;;;;4956103;28;20190;-64
2022/12/19 10:27:50;;;;;;;25.92;18.92;;;;;;;;;;4955725;28;20182;-64
2022/12/19 10:30:18;;;;;;;31.40;18.52;;;;;;;;;;4956512;28;20218;-64
2022/12/19 10:32:56;;;;;;;27.05;16.80;;;;;;;;;;4955569;28;20632;-65
2022/12/19 10:35:23;;;;;;;25.40;17.20;;;;;;;;;;4955443;28;20209;-65
2022/12/19 10:37:56;;;;;;;26.63;16.77;;;;;;;;;;4956021;28;20201;-64
2022/12/19 10:40:26;;;;;;;24.40;18.80;;;;;;;;;;4955561;28;20305;-64
2022/12/19 10:42:55;;;;;;;24.65;17.38;;;;;;;;;;4955376;28;20224;-64
2022/12/19 10:45:24;;;;;;;28.15;18.00;;;;;;;;;;4955396;28;20669;-64
2022/12/19 10:47:55;;;;;;;29.10;16.20;;;;;;;;;;4955280;28;20206;-64
2022/12/19 10:50:24;;;;;;;23.05;16.15;;;;;;;;;;4955809;28;20277;-64
2022/12/19 10:52:54;;;;;;;28.27;16.05;;;;;;;;;;4955456;28;20202;-65
2022/12/19 10:55:23;;;;;;;23.98;14.05;;;;;;;;;;4955298;28;20225;-65
2022/12/19 10:57:50;;;;;;;22.38;15.32;;;;;;;;;;4955811;28;20628;-65
2022/12/19 11:00:18;;;;;;;24.38;15.95;;;;;;;;;;4955369;28;20218;-65
2022/12/19 11:02:46;;;;;;;21.45;15.68;;;;;;;;;;4955211;28;20316;-65
2022/12/19 11:05:24;;;;;;;21.25;15.05;;;;;;;;;;4955602;28;20279;-65
2022/12/19 11:08:03;;;;;;;22.90;14.77;;;;;;;;;;4955371;28;20682;-65
2022/12/19 11:10:38;;;;;;;27.95;16.38;;;;;;;;;;4955748;28;20196;-65
2022/12/19 11:13:18;;;;;;;23.08;16.63;;;;;;;;;;4955607;28;20198;-64
2022/12/19 11:15:49;;;;;;;24.50;16.98;;;;;;;;;;4955506;28;20193;-65
2022/12/19 11:18:17;;;;;;;20.85;15.10;;;;;;;;;;4954770;28;20564;-65
2022/12/19 11:20:54;;;;;;;24.13;15.27;;;;;;;;;;4954496;28;20264;-64
2022/12/19 11:23:23;;;;;;;20.15;13.73;;;;;;;;;;4954809;28;20181;-65
2022/12/19 11:25:54;;;;;;;20.10;16.65;;;;;;;;;;4954794;28;20202;-65
2022/12/19 11:28:23;;;;;;;21.58;14.82;;;;;;;;;;4955045;28;20305;-66
2022/12/19 11:30:56;;;;;;;18.52;14.40;;;;;;;;;;4954443;28;20739;-64
2022/12/19 11:33:23;;;;;;;21.98;15.45;;;;;;;;;;4954739;28;20186;-65
2022/12/19 11:35:51;;;;;;;20.73;14.98;;;;;;;;;;4954812;28;20285;-64
2022/12/19 11:38:20;;;;;;;25.45;15.25;;;;;;;;;;4954465;28;20208;-65
2022/12/19 11:40:51;;;;;;;20.00;15.77;;;;;;;;;;4954438;28;20228;-65
2022/12/19 11:43:21;;;;;;;25.27;14.93;;;;;;;;;;4954712;28;20193;-65
2022/12/19 11:45:52;;;;;;;19.60;15.15;;;;;;;;;;4954944;28;20205;-65
2022/12/19 11:48:22;;;;;;;21.40;16.30;;;;;;;;;;4954620;28;20186;-64
2022/12/19 11:50:55;;;;;;;20.77;14.38;;;;;;;;;;4954348;28;20222;-64
2022/12/19 11:53:26;;;;;;;26.10;15.55;;;;;;;;;;4954514;28;20214;-64
2022/12/19 11:55:55;;;;;;;17.98;14.20;;;;;;;;;;4954503;28;20198;-65
2022/12/19 11:58:23;;;;;;;18.88;13.20;;;;;;;;;;4954225;28;20664;-65
2022/12/19 12:00:53;;;;;;;17.25;13.85;;;;;;;;;;4954722;28;20318;-65
2022/12/19 12:03:35;;;;;;;17.75;13.77;;;;;;;;;;4954312;28;20226;-64
2022/12/19 12:06:09;;;;;;;20.77;14.65;;;;;;;;;;4954420;28;20197;-64
2022/12/19 12:08:42;;;;;;;21.20;15.32;;;;;;;;;;4954714;28;20273;-65
2022/12/19 12:11:20;;;;;;;22.40;14.87;;;;;;;;;;4954431;28;20197;-64
2022/12/19 12:13:52;;;;;;;21.45;13.57;;;;;;;;;;4954313;28;20438;-64
2022/12/19 12:16:20;;;;;;;17.77;13.07;;;;;;;;;;4954985;28;20197;-64
2022/12/19 12:18:57;;;;;;;19.70;13.13;;;;;;;;;;4954323;28;20729;-65
2022/12/19 12:21:24;;;;;;;17.38;13.05;;;;;;;;;;4955134;28;20225;-65
2022/12/19 12:23:59;;;;;;;19.02;12.90;;;;;;;;;;4954529;28;20297;-65
2022/12/19 12:26:30;;;;;;;16.48;12.93;;;;;;;;;;4954531;28;20212;-65
2022/12/19 12:29:04;;;;;;;18.35;13.18;;;;;;;;;;4954445;28;20187;-65
2022/12/19 12:31:36;;;;;;;18.65;11.85;;;;;;;;;;4956923;28;20201;-65
2022/12/19 12:34:18;;;;;;;18.42;13.07;;;;;;;;;;4957750;28;20198;-65
2022/12/19 12:36:54;;;;;;;17.20;12.50;;;;;;;;;;4956101;28;20248;-65
2022/12/19 12:39:25;;;;;;;18.27;12.40;;;;;;;;;;4957561;28;20198;-64
2022/12/19 12:42:04;;;;;;;22.37;14.13;;;;;;;;;;4957677;28;20194;-64
2022/12/19 12:44:33;;;;;;;18.00;12.43;;;;;;;;;;4958338;28;20516;-64
2022/12/19 12:47:01;;;;;;;20.88;14.88;;;;;;;;;;4957593;28;20198;-64
2022/12/19 12:49:38;;;;;;;17.75;13.55;;;;;;;;;;4957596;28;20204;-64
2022/12/19 12:52:07;;;;;;;19.98;13.13;;;;;;;;;;4957809;28;20249;-64
2022/12/19 12:54:36;;;;;;;16.85;12.20;;;;;;;;;;4957693;28;20206;-64
2022/12/19 12:57:04;;;;;;;18.92;13.70;;;;;;;;;;4957506;28;20200;-64
2022/12/19 12:59:32;;;;;;;18.77;12.15;;;;;;;;;;4957018;28;20678;-64
2022/12/19 13:02:00;;;;;;;19.30;13.07;;;;;;;;;;4956710;28;20202;-64
2022/12/19 13:04:30;;;;;;;16.85;13.35;;;;;;;;;;4957041;28;20261;-64
2022/12/19 13:07:18;;;;;;;16.00;11.80;;;;;;;;;;4956600;28;20728;-64
2022/12/19 13:09:48;;;;;;;18.13;13.20;;;;;;;;;;4952267;28;20253;-64
2022/12/19 13:15:23;;;;;;;18.40;12.88;;;;;;;;;;4956704;29;20310;-64
2022/12/19 13:18:24;;;;;;;15.05;12.07;;;;;;;;;;4956726;28;20289;-64
2022/12/19 13:20:51;;;;;;;17.02;13.65;;;;;;;;;;4897483;29;20315;-64
2022/12/19 13:23:23;;;;;;;16.02;12.05;;;;;;;;;;4897620;29;20196;-64
2022/12/19 13:25:52;;;;;;;19.50;12.67;;;;;;;;;;4926658;28;20209;-63
2022/12/19 13:28:42;;;;;;;17.00;13.40;;;;;;;;;;4956353;28;20438;-63
2022/12/19 13:31:21;;;;;;;15.57;12.10;;;;;;;;;;4957004;28;20460;-64
2022/12/19 13:34:03;;;;;;;17.73;11.87;;;;;;;;;;4956884;28;20601;-63
2022/12/19 13:36:45;;;;;;;14.48;12.27;;;;;;;;;;4956966;28;20450;-63
2022/12/19 13:39:23;;;;;;;15.07;12.43;;;;;;;;;;4954809;29;20208;-65
2022/12/19 13:44:40;;;;;;;14.93;13.07;;;;;;;;;;4956042;29;20189;-66
2022/12/19 13:47:07;;;;;;;13.83;10.80;;;;;;;;;;4956051;28;20196;-64
2022/12/19 13:49:35;;;;;;;15.13;10.43;;;;;;;;;;4956268;28;20532;-64
2022/12/19 13:52:02;;;;;;;18.07;11.60;;;;;;;;;;4956527;28;20202;-63
2022/12/19 13:54:33;;;;;;;11.95;9.85;;;;;;;;;;4956111;28;20965;-63
2022/12/19 13:57:00;;;;;;;15.90;11.63;;;;;;;;;;4956753;28;20183;-63
2022/12/19 13:59:32;;;;;;;13.88;10.57;;;;;;;;;;4956277;28;20253;-64
2022/12/19 14:02:07;;;;;;;12.45;10.60;;;;;;;;;;4955826;28;20218;-64
2022/12/19 14:04:34;;;;;;;15.02;10.43;;;;;;;;;;4955961;28;20610;-64
2022/12/19 14:07:02;;;;;;;13.50;10.13;;;;;;;;;;4961190;28;20676;-65
2022/12/19 14:09:31;;;;;;;14.38;9.93;;;;;;;;;;4974615;28;20295;-64
2022/12/19 14:12:00;;;;;;;16.07;11.37;;;;;;;;;;4957007;28;20209;-64
2022/12/19 14:17:14;;;;;;;11.03;8.73;;;;;;;;;;4955336;29;20659;-64
2022/12/19 14:19:42;;;;;;;12.57;9.83;;;;;;;;;;4955545;28;20456;-64
2022/12/19 14:22:13;;;;;;;12.50;9.63;;;;;;;;;;4955304;28;20505;-64
2022/12/19 14:24:41;;;;;;;10.40;8.67;;;;;;;;;;4955502;28;20230;-64
2022/12/19 14:27:09;;;;;;;13.93;10.43;;;;;;;;;;4955372;28;20889;-65
2022/12/19 14:29:39;;;;;;;12.53;8.70;;;;;;;;;;4955104;28;20301;-68
2022/12/19 14:32:08;;;;;;;11.10;9.37;;;;;;;;;;4955195;28;20942;-66
2022/12/19 14:34:37;;;;;;;12.15;9.20;;;;;;;;;;4954937;28;20461;-67
2022/12/19 14:37:04;;;;;;;10.60;8.90;;;;;;;;;;4955420;28;20298;-66
2022/12/19 14:39:32;;;;;;;11.03;9.17;;;;;;;;;;4955036;28;20450;-66
2022/12/19 14:44:49;;;;;;;12.00;8.93;;;;;;;;;;4955112;29;20461;-67
2022/12/19 14:47:22;;;;;;;10.33;9.10;;;;;;;;;;4955352;28;20446;-67
2022/12/19 14:49:50;;;;;;;10.90;8.80;;;;;;;;;;4955520;28;20429;-66